sensor_id;sensor_type;location;lat;lon;timestamp;temperature;humidity
16736;DHT22;17990;49.548;9.730;2024-03-02T00:00:44;4.60;99.90
16736;DHT22;17990;49.548;9.730;2024-03-02T00:03:12;4.70;99.90
16736;DHT22;17990;49.548;9.730;2024-03-02T00:05:39;4.60;99.90
16736;DHT22;17990;49.548;9.730;2024-03-02T00:08:07;4.60;99.90
16736;DHT22;17990;49.548;9.730;2024-03-02T00:10:37;4.60;99.90
16736;DHT22;17990;49.548;9.730;2024-03-02T00:13:05;4.60;99.90
16736;DHT22;17990;49.548;9.730;2024-03-02T00:15:41;4.60;99.90
16736;DHT22;17990;49.548;9.730;2024-03-02T00:18:11;4.70;99.90
16736;DHT22;17990;49.548;9.730;2024-03-02T00:20:38;4.70;99.90
16736;DHT22;17990;49.548;9.730;2024-03-02T00:23:05;4.60;99.90
16736;DHT22;17990;49.548;9.730;2024-03-02T00:25:39;4.70;99.90
16736;DHT22;17990;49.548;9.730;2024-03-02T00:28:13;4.60;99.90
16736;DHT22;17990;49.548;9.730;2024-03-02T00:30:52;4.50;99.90
16736;DHT22;17990;49.548;9.730;2024-03-02T00:33:21;4.50;99.90
16736;DHT22;17990;49.548;9.730;2024-03-02T00:35:48;4.50;99.90
16736;DHT22;17990;49.548;9.730;2024-03-02T00:38:15;4.40;99.90
16736;DHT22;17990;49.548;9.730;2024-03-02T00:40:44;4.50;99.90
16736;DHT22;17990;49.548;9.730;2024-03-02T00:43:41;4.50;99.90
16736;DHT22;17990;49.548;9.730;2024-03-02T00:46:08;4.50;99.90
16736;DHT22;17990;49.548;9.730;2024-03-02T00:48:34;4.50;99.90
16736;DHT22;17990;49.548;9.730;2024-03-02T00:51:03;4.50;99.90
16736;DHT22;17990;49.548;9.730;2024-03-02T00:53:31;4.50;99.90
16736;DHT22;17990;49.548;9.730;2024-03-02T00:56:01;4.50;99.90
16736;DHT22;17990;49.548;9.730;2024-03-02T00:58:27;4.50;99.90
16736;DHT22;17990;49.548;9.730;2024-03-02T01:00:54;4.50;99.90
16736;DHT22;17990;49.548;9.730;2024-03-02T01:03:21;4.50;99.90
16736;DHT22;17990;49.548;9.730;2024-03-02T01:05:48;4.50;99.90
16736;DHT22;17990;49.548;9.730;2024-03-02T01:08:14;4.50;99.90
16736;DHT22;17990;49.548;9.730;2024-03-02T01:10:41;4.50;99.90
16736;DHT22;17990;49.548;9.730;2024-03-02T01:13:10;4.50;99.90
16736;DHT22;17990;49.548;9.730;2024-03-02T01:15:36;4.40;99.90
16736;DHT22;17990;49.548;9.730;2024-03-02T01:18:03;4.40;99.90
16736;DHT22;17990;49.548;9.730;2024-03-02T01:20:30;4.50;99.90
16736;DHT22;17990;49.548;9.730;2024-03-02T01:22:57;4.50;99.90
16736;DHT22;17990;49.548;9.730;2024-03-02T01:25:24;4.50;99.90
16736;DHT22;17990;49.548;9.730;2024-03-02T01:27:51;4.50;99.90
16736;DHT22;17990;49.548;9.730;2024-03-02T01:30:19;4.50;99.90
16736;DHT22;17990;49.548;9.730;2024-03-02T01:32:46;4.50;99.90
16736;DHT22;17990;49.548;9.730;2024-03-02T01:35:13;4.60;99.90
16736;DHT22;17990;49.548;9.730;2024-03-02T01:37:40;4.60;99.90
16736;DHT22;17990;49.548;9.730;2024-03-02T01:40:08;4.60;99.90
16736;DHT22;17990;49.548;9.730;2024-03-02T01:42:36;4.50;99.90
16736;DHT22;17990;49.548;9.730;2024-03-02T01:45:04;4.50;99.90
16736;DHT22;17990;49.548;9.730;2024-03-02T01:47:33;4.50;99.90
16736;DHT22;17990;49.548;9.730;2024-03-02T01:50:00;4.50;99.90
16736;DHT22;17990;49.548;9.730;2024-03-02T01:52:27;4.50;99.90
16736;DHT22;17990;49.548;9.730;2024-03-02T01:54:55;4.50;99.90
16736;DHT22;17990;49.548;9.730;2024-03-02T01:57:22;4.50;99.90
16736;DHT22;17990;49.548;9.730;2024-03-02T01:59:49;4.50;99.90
16736;DHT22;17990;49.548;9.730;2024-03-02T02:02:17;4.50;99.90
16736;DHT22;17990;49.548;9.730;2024-03-02T02:04:45;4.40;99.90
16736;DHT22;17990;49.548;9.730;2024-03-02T02:07:12;4.40;99.90
16736;DHT22;17990;49.548;9.730;2024-03-02T02:09:40;4.40;99.90
16736;DHT22;17990;49.548;9.730;2024-03-02T02:12:07;4.40;99.90
16736;DHT22;17990;49.548;9.730;2024-03-02T02:14:34;4.50;99.90
16736;DHT22;17990;49.548;9.730;2024-03-02T02:17:01;4.40;99.90
16736;DHT22;17990;49.548;9.730;2024-03-02T02:19:28;4.40;99.90
16736;DHT22;17990;49.548;9.730;2024-03-02T02:21:58;4.40;99.90
16736;DHT22;17990;49.548;9.730;2024-03-02T02:24:25;4.40;99.90
16736;DHT22;17990;49.548;9.730;2024-03-02T02:26:53;4.40;99.90
16736;DHT22;17990;49.548;9.730;2024-03-02T02:29:20;4.40;99.90
16736;DHT22;17990;49.548;9.730;2024-03-02T02:31:47;4.30;99.90
16736;DHT22;17990;49.548;9.730;2024-03-02T02:34:14;4.30;99.90
16736;DHT22;17990;49.548;9.730;2024-03-02T02:36:41;4.30;99.90
16736;DHT22;17990;49.548;9.730;2024-03-02T02:39:13;4.30;99.90
16736;DHT22;17990;49.548;9.730;2024-03-02T02:41:39;4.20;99.90
16736;DHT22;17990;49.548;9.730;2024-03-02T02:44:06;4.20;99.90
16736;DHT22;17990;49.548;9.730;2024-03-02T02:46:32;4.10;99.90
16736;DHT22;17990;49.548;9.730;2024-03-02T02:48:59;4.00;99.90
16736;DHT22;17990;49.548;9.730;2024-03-02T02:51:26;3.90;99.90
16736;DHT22;17990;49.548;9.730;2024-03-02T02:53:52;3.90;99.90
16736;DHT22;17990;49.548;9.730;2024-03-02T02:56:20;3.90;99.90
16736;DHT22;17990;49.548;9.730;2024-03-02T02:58:47;3.80;99.90
16736;DHT22;17990;49.548;9.730;2024-03-02T03:01:14;3.70;99.90
16736;DHT22;17990;49.548;9.730;2024-03-02T03:03:42;3.60;99.90
16736;DHT22;17990;49.548;9.730;2024-03-02T03:06:09;3.60;99.90
16736;DHT22;17990;49.548;9.730;2024-03-02T03:08:35;3.60;99.90
16736;DHT22;17990;49.548;9.730;2024-03-02T03:11:02;3.50;99.90
16736;DHT22;17990;49.548;9.730;2024-03-02T03:13:31;3.50;99.90
16736;DHT22;17990;49.548;9.730;2024-03-02T03:15:58;3.50;99.90
16736;DHT22;17990;49.548;9.730;2024-03-02T03:18:24;3.40;99.90
16736;DHT22;17990;49.548;9.730;2024-03-02T03:20:51;3.40;99.90
16736;DHT22;17990;49.548;9.730;2024-03-02T03:23:18;3.30;99.90
16736;DHT22;17990;49.548;9.730;2024-03-02T03:25:45;3.30;99.90
16736;DHT22;17990;49.548;9.730;2024-03-02T03:28:11;3.20;99.90
16736;DHT22;17990;49.548;9.730;2024-03-02T03:30:39;3.20;99.90
16736;DHT22;17990;49.548;9.730;2024-03-02T03:33:06;3.10;99.90
16736;DHT22;17990;49.548;9.730;2024-03-02T03:35:33;3.10;99.90
16736;DHT22;17990;49.548;9.730;2024-03-02T03:38:00;3.00;99.90
16736;DHT22;17990;49.548;9.730;2024-03-02T03:40:27;3.00;99.90
16736;DHT22;17990;49.548;9.730;2024-03-02T03:42:53;3.00;99.90
16736;DHT22;17990;49.548;9.730;2024-03-02T03:45:22;2.90;99.90
16736;DHT22;17990;49.548;9.730;2024-03-02T03:47:52;2.90;99.90
16736;DHT22;17990;49.548;9.730;2024-03-02T03:50:19;2.80;99.90
16736;DHT22;17990;49.548;9.730;2024-03-02T03:52:45;2.70;99.90
16736;DHT22;17990;49.548;9.730;2024-03-02T03:55:12;2.70;99.90
16736;DHT22;17990;49.548;9.730;2024-03-02T03:57:39;2.60;99.90
16736;DHT22;17990;49.548;9.730;2024-03-02T04:00:07;2.60;99.90
16736;DHT22;17990;49.548;9.730;2024-03-02T04:02:35;2.50;99.90
16736;DHT22;17990;49.548;9.730;2024-03-02T04:05:04;2.40;99.90
16736;DHT22;17990;49.548;9.730;2024-03-02T04:07:34;2.40;99.90
16736;DHT22;17990;49.548;9.730;2024-03-02T04:10:06;2.40;99.90
16736;DHT22;17990;49.548;9.730;2024-03-02T04:12:34;2.30;99.90
16736;DHT22;17990;49.548;9.730;2024-03-02T04:15:01;2.20;99.90
16736;DHT22;17990;49.548;9.730;2024-03-02T04:17:29;2.20;99.90
16736;DHT22;17990;49.548;9.730;2024-03-02T04:19:57;2.20;99.90
16736;DHT22;17990;49.548;9.730;2024-03-02T04:22:25;2.10;99.90
16736;DHT22;17990;49.548;9.730;2024-03-02T04:24:52;2.10;99.90
16736;DHT22;17990;49.548;9.730;2024-03-02T04:27:19;2.00;99.90
16736;DHT22;17990;49.548;9.730;2024-03-02T04:29:45;1.90;99.90
16736;DHT22;17990;49.548;9.730;2024-03-02T04:32:12;1.90;99.90
16736;DHT22;17990;49.548;9.730;2024-03-02T04:34:39;1.90;99.90
16736;DHT22;17990;49.548;9.730;2024-03-02T04:37:06;2.00;99.90
16736;DHT22;17990;49.548;9.730;2024-03-02T04:39:35;2.10;99.90
16736;DHT22;17990;49.548;9.730;2024-03-02T04:42:02;2.20;99.90
16736;DHT22;17990;49.548;9.730;2024-03-02T04:44:29;2.20;99.90
16736;DHT22;17990;49.548;9.730;2024-03-02T04:46:56;2.30;99.90
16736;DHT22;17990;49.548;9.730;2024-03-02T04:49:23;2.30;99.90
16736;DHT22;17990;49.548;9.730;2024-03-02T04:51:50;2.30;99.90
16736;DHT22;17990;49.548;9.730;2024-03-02T04:54:16;2.30;99.90
16736;DHT22;17990;49.548;9.730;2024-03-02T04:56:44;2.20;99.90
16736;DHT22;17990;49.548;9.730;2024-03-02T04:59:15;2.30;99.90
16736;DHT22;17990;49.548;9.730;2024-03-02T05:01:42;2.20;99.90
16736;DHT22;17990;49.548;9.730;2024-03-02T05:04:09;2.20;99.90
16736;DHT22;17990;49.548;9.730;2024-03-02T05:06:37;2.30;99.90
16736;DHT22;17990;49.548;9.730;2024-03-02T05:09:04;2.30;99.90
16736;DHT22;17990;49.548;9.730;2024-03-02T05:11:31;2.30;99.90
16736;DHT22;17990;49.548;9.730;2024-03-02T05:14:23;2.20;99.90
16736;DHT22;17990;49.548;9.730;2024-03-02T05:16:49;2.10;99.90
16736;DHT22;17990;49.548;9.730;2024-03-02T05:19:16;2.20;99.90
16736;DHT22;17990;49.548;9.730;2024-03-02T05:21:43;2.20;99.90
16736;DHT22;17990;49.548;9.730;2024-03-02T05:24:09;2.20;99.90
16736;DHT22;17990;49.548;9.730;2024-03-02T05:26:36;2.20;99.90
16736;DHT22;17990;49.548;9.730;2024-03-02T05:29:03;2.20;99.90
16736;DHT22;17990;49.548;9.730;2024-03-02T05:31:31;2.30;99.90
16736;DHT22;17990;49.548;9.730;2024-03-02T05:33:57;2.30;99.90
16736;DHT22;17990;49.548;9.730;2024-03-02T05:36:24;2.30;99.90
16736;DHT22;17990;49.548;9.730;2024-03-02T05:38:51;2.40;99.90
16736;DHT22;17990;49.548;9.730;2024-03-02T05:41:18;2.40;99.90
16736;DHT22;17990;49.548;9.730;2024-03-02T05:43:44;2.50;99.90
16736;DHT22;17990;49.548;9.730;2024-03-02T05:46:11;2.40;99.90
16736;DHT22;17990;49.548;9.730;2024-03-02T05:48:39;2.50;99.90
16736;DHT22;17990;49.548;9.730;2024-03-02T05:51:06;2.40;99.90
16736;DHT22;17990;49.548;9.730;2024-03-02T05:53:33;2.40;99.90
16736;DHT22;17990;49.548;9.730;2024-03-02T05:56:00;2.50;99.90
16736;DHT22;17990;49.548;9.730;2024-03-02T05:58:27;2.50;99.90
16736;DHT22;17990;49.548;9.730;2024-03-02T06:01:03;2.50;99.90
16736;DHT22;17990;49.548;9.730;2024-03-02T06:03:31;2.50;99.90
16736;DHT22;17990;49.548;9.730;2024-03-02T06:05:59;2.50;99.90
16736;DHT22;17990;49.548;9.730;2024-03-02T06:08:26;2.50;99.90
16736;DHT22;17990;49.548;9.730;2024-03-02T06:10:52;2.60;99.90
16736;DHT22;17990;49.548;9.730;2024-03-02T06:13:19;2.60;99.90
16736;DHT22;17990;49.548;9.730;2024-03-02T06:15:46;2.60;99.90
16736;DHT22;17990;49.548;9.730;2024-03-02T06:18:12;2.60;99.90
16736;DHT22;17990;49.548;9.730;2024-03-02T06:20:39;2.50;99.90
16736;DHT22;17990;49.548;9.730;2024-03-02T06:23:07;2.60;99.90
16736;DHT22;17990;49.548;9.730;2024-03-02T06:25:34;2.60;99.90
16736;DHT22;17990;49.548;9.730;2024-03-02T06:28:01;2.70;99.90
16736;DHT22;17990;49.548;9.730;2024-03-02T06:30:28;2.80;99.90
16736;DHT22;17990;49.548;9.730;2024-03-02T06:32:54;2.90;99.90
16736;DHT22;17990;49.548;9.730;2024-03-02T06:35:21;3.00;99.90
16736;DHT22;17990;49.548;9.730;2024-03-02T06:37:48;3.10;99.90
16736;DHT22;17990;49.548;9.730;2024-03-02T06:40:16;3.00;99.90
16736;DHT22;17990;49.548;9.730;2024-03-02T06:42:43;3.00;99.90
16736;DHT22;17990;49.548;9.730;2024-03-02T06:45:10;3.10;99.90
16736;DHT22;17990;49.548;9.730;2024-03-02T06:47:36;3.20;99.90
16736;DHT22;17990;49.548;9.730;2024-03-02T06:50:04;3.40;99.90
16736;DHT22;17990;49.548;9.730;2024-03-02T06:52:32;3.50;99.90
16736;DHT22;17990;49.548;9.730;2024-03-02T06:54:59;3.50;99.90
16736;DHT22;17990;49.548;9.730;2024-03-02T06:57:27;3.50;99.90
16736;DHT22;17990;49.548;9.730;2024-03-02T06:59:53;3.50;99.90
16736;DHT22;17990;49.548;9.730;2024-03-02T07:02:23;3.50;99.90
16736;DHT22;17990;49.548;9.730;2024-03-02T07:04:52;3.30;99.90
16736;DHT22;17990;49.548;9.730;2024-03-02T07:07:18;3.50;99.90
16736;DHT22;17990;49.548;9.730;2024-03-02T07:09:46;3.70;99.90
16736;DHT22;17990;49.548;9.730;2024-03-02T07:12:13;3.80;99.90
16736;DHT22;17990;49.548;9.730;2024-03-02T07:14:41;3.80;99.90
16736;DHT22;17990;49.548;9.730;2024-03-02T07:17:19;3.90;99.90
16736;DHT22;17990;49.548;9.730;2024-03-02T07:19:46;4.20;99.90
16736;DHT22;17990;49.548;9.730;2024-03-02T07:22:13;4.20;99.90
16736;DHT22;17990;49.548;9.730;2024-03-02T07:24:40;4.30;99.90
16736;DHT22;17990;49.548;9.730;2024-03-02T07:27:07;4.40;99.90
16736;DHT22;17990;49.548;9.730;2024-03-02T07:29:34;4.50;99.90
16736;DHT22;17990;49.548;9.730;2024-03-02T07:32:02;4.50;99.90
16736;DHT22;17990;49.548;9.730;2024-03-02T07:34:29;4.70;99.90
16736;DHT22;17990;49.548;9.730;2024-03-02T07:36:56;4.90;99.90
16736;DHT22;17990;49.548;9.730;2024-03-02T07:39:23;5.10;99.90
16736;DHT22;17990;49.548;9.730;2024-03-02T07:41:50;5.20;99.90
16736;DHT22;17990;49.548;9.730;2024-03-02T07:44:17;5.20;99.90
16736;DHT22;17990;49.548;9.730;2024-03-02T07:46:45;5.30;99.90
16736;DHT22;17990;49.548;9.730;2024-03-02T07:49:14;5.40;99.90
16736;DHT22;17990;49.548;9.730;2024-03-02T07:51:41;5.50;99.90
16736;DHT22;17990;49.548;9.730;2024-03-02T07:54:07;5.60;99.90
16736;DHT22;17990;49.548;9.730;2024-03-02T07:56:34;5.60;99.90
16736;DHT22;17990;49.548;9.730;2024-03-02T07:59:01;5.70;99.90
16736;DHT22;17990;49.548;9.730;2024-03-02T08:01:28;5.80;99.90
16736;DHT22;17990;49.548;9.730;2024-03-02T08:03:55;5.90;99.90
16736;DHT22;17990;49.548;9.730;2024-03-02T08:06:25;5.90;99.90
16736;DHT22;17990;49.548;9.730;2024-03-02T08:08:53;6.00;99.90
16736;DHT22;17990;49.548;9.730;2024-03-02T08:11:20;6.10;99.90
16736;DHT22;17990;49.548;9.730;2024-03-02T08:13:47;6.30;99.90
16736;DHT22;17990;49.548;9.730;2024-03-02T08:16:14;6.30;99.90
16736;DHT22;17990;49.548;9.730;2024-03-02T08:18:41;6.40;99.90
16736;DHT22;17990;49.548;9.730;2024-03-02T08:21:08;6.40;99.90
16736;DHT22;17990;49.548;9.730;2024-03-02T08:23:36;6.50;99.90
16736;DHT22;17990;49.548;9.730;2024-03-02T08:26:03;6.60;99.90
16736;DHT22;17990;49.548;9.730;2024-03-02T08:28:30;6.70;99.90
16736;DHT22;17990;49.548;9.730;2024-03-02T08:30:57;6.80;99.90
16736;DHT22;17990;49.548;9.730;2024-03-02T08:33:24;6.90;99.90
16736;DHT22;17990;49.548;9.730;2024-03-02T08:35:51;7.00;99.90
16736;DHT22;17990;49.548;9.730;2024-03-02T08:38:18;7.10;99.90
16736;DHT22;17990;49.548;9.730;2024-03-02T08:40:46;7.20;99.90
16736;DHT22;17990;49.548;9.730;2024-03-02T08:43:13;7.20;99.90
16736;DHT22;17990;49.548;9.730;2024-03-02T08:45:41;7.30;99.90
16736;DHT22;17990;49.548;9.730;2024-03-02T08:48:08;7.30;99.90
16736;DHT22;17990;49.548;9.730;2024-03-02T08:50:35;7.30;99.90
16736;DHT22;17990;49.548;9.730;2024-03-02T08:53:02;7.40;99.90
16736;DHT22;17990;49.548;9.730;2024-03-02T08:55:29;7.50;99.90
16736;DHT22;17990;49.548;9.730;2024-03-02T08:57:57;7.50;99.90
16736;DHT22;17990;49.548;9.730;2024-03-02T09:00:24;7.70;99.90
16736;DHT22;17990;49.548;9.730;2024-03-02T09:02:51;7.80;99.90
16736;DHT22;17990;49.548;9.730;2024-03-02T09:05:18;7.90;99.90
16736;DHT22;17990;49.548;9.730;2024-03-02T09:07:45;8.00;99.90
16736;DHT22;17990;49.548;9.730;2024-03-02T09:10:11;8.20;99.90
16736;DHT22;17990;49.548;9.730;2024-03-02T09:12:38;8.30;99.90
16736;DHT22;17990;49.548;9.730;2024-03-02T09:15:07;8.40;99.90
16736;DHT22;17990;49.548;9.730;2024-03-02T09:17:34;8.40;99.90
16736;DHT22;17990;49.548;9.730;2024-03-02T09:20:01;8.50;99.90
16736;DHT22;17990;49.548;9.730;2024-03-02T09:22:29;8.60;99.90
16736;DHT22;17990;49.548;9.730;2024-03-02T09:24:57;8.80;99.90
16736;DHT22;17990;49.548;9.730;2024-03-02T09:27:24;8.90;99.90
16736;DHT22;17990;49.548;9.730;2024-03-02T09:29:51;9.00;99.90
16736;DHT22;17990;49.548;9.730;2024-03-02T09:32:19;9.10;99.90
16736;DHT22;17990;49.548;9.730;2024-03-02T09:34:46;9.00;99.90
16736;DHT22;17990;49.548;9.730;2024-03-02T09:37:13;9.20;99.90
16736;DHT22;17990;49.548;9.730;2024-03-02T09:39:43;8.80;99.90
16736;DHT22;17990;49.548;9.730;2024-03-02T09:42:10;8.80;99.90
16736;DHT22;17990;49.548;9.730;2024-03-02T09:44:37;9.10;99.90
16736;DHT22;17990;49.548;9.730;2024-03-02T09:47:06;9.20;99.90
16736;DHT22;17990;49.548;9.730;2024-03-02T09:49:34;9.40;99.90
16736;DHT22;17990;49.548;9.730;2024-03-02T09:52:03;9.20;99.90
16736;DHT22;17990;49.548;9.730;2024-03-02T09:54:31;9.50;99.90
16736;DHT22;17990;49.548;9.730;2024-03-02T09:56:58;9.70;99.90
16736;DHT22;17990;49.548;9.730;2024-03-02T09:59:27;9.70;99.90
16736;DHT22;17990;49.548;9.730;2024-03-02T10:01:58;9.70;99.90
16736;DHT22;17990;49.548;9.730;2024-03-02T10:04:26;9.90;99.90
16736;DHT22;17990;49.548;9.730;2024-03-02T10:07:09;10.10;99.90
16736;DHT22;17990;49.548;9.730;2024-03-02T10:09:37;10.30;99.90
16736;DHT22;17990;49.548;9.730;2024-03-02T10:12:04;10.40;99.90
16736;DHT22;17990;49.548;9.730;2024-03-02T10:14:31;10.60;99.90
16736;DHT22;17990;49.548;9.730;2024-03-02T10:17:02;10.60;99.90
16736;DHT22;17990;49.548;9.730;2024-03-02T10:19:29;10.50;99.90
16736;DHT22;17990;49.548;9.730;2024-03-02T10:21:59;10.50;99.90
16736;DHT22;17990;49.548;9.730;2024-03-02T10:24:27;10.60;99.90
16736;DHT22;17990;49.548;9.730;2024-03-02T10:26:54;10.60;99.90
16736;DHT22;17990;49.548;9.730;2024-03-02T10:29:22;10.70;99.90
16736;DHT22;17990;49.548;9.730;2024-03-02T10:31:48;10.70;99.90
16736;DHT22;17990;49.548;9.730;2024-03-02T10:34:15;10.60;99.90
16736;DHT22;17990;49.548;9.730;2024-03-02T10:36:43;10.70;99.90
16736;DHT22;17990;49.548;9.730;2024-03-02T10:39:13;10.80;99.90
16736;DHT22;17990;49.548;9.730;2024-03-02T10:41:41;10.90;99.90
16736;DHT22;17990;49.548;9.730;2024-03-02T10:44:09;11.20;99.90
16736;DHT22;17990;49.548;9.730;2024-03-02T10:46:38;11.30;99.90
16736;DHT22;17990;49.548;9.730;2024-03-02T10:49:05;11.40;99.90
16736;DHT22;17990;49.548;9.730;2024-03-02T10:51:33;11.50;99.90
16736;DHT22;17990;49.548;9.730;2024-03-02T10:54:02;11.60;99.90
16736;DHT22;17990;49.548;9.730;2024-03-02T10:56:30;11.80;99.90
16736;DHT22;17990;49.548;9.730;2024-03-02T10:59:02;12.00;99.90
16736;DHT22;17990;49.548;9.730;2024-03-02T11:01:32;12.20;99.90
16736;DHT22;17990;49.548;9.730;2024-03-02T11:04:02;12.30;99.90
16736;DHT22;17990;49.548;9.730;2024-03-02T11:06:30;12.40;99.90
16736;DHT22;17990;49.548;9.730;2024-03-02T11:09:05;12.60;99.90
16736;DHT22;17990;49.548;9.730;2024-03-02T11:11:37;12.80;99.90
16736;DHT22;17990;49.548;9.730;2024-03-02T11:14:12;12.80;99.90
16736;DHT22;17990;49.548;9.730;2024-03-02T11:16:39;12.90;99.90
16736;DHT22;17990;49.548;9.730;2024-03-02T11:19:09;12.90;99.90
16736;DHT22;17990;49.548;9.730;2024-03-02T11:21:37;12.90;99.90
16736;DHT22;17990;49.548;9.730;2024-03-02T11:24:28;13.10;99.90
16736;DHT22;17990;49.548;9.730;2024-03-02T11:26:58;13.20;99.90
16736;DHT22;17990;49.548;9.730;2024-03-02T11:29:44;13.30;99.90
16736;DHT22;17990;49.548;9.730;2024-03-02T11:32:15;13.50;99.90
16736;DHT22;17990;49.548;9.730;2024-03-02T11:34:43;13.60;99.90
16736;DHT22;17990;49.548;9.730;2024-03-02T11:37:12;13.60;99.90
16736;DHT22;17990;49.548;9.730;2024-03-02T11:39:39;13.80;99.90
16736;DHT22;17990;49.548;9.730;2024-03-02T11:42:06;13.80;99.90
16736;DHT22;17990;49.548;9.730;2024-03-02T11:44:34;14.00;99.90
16736;DHT22;17990;49.548;9.730;2024-03-02T11:47:06;14.00;99.90
16736;DHT22;17990;49.548;9.730;2024-03-02T11:49:37;14.10;99.90
16736;DHT22;17990;49.548;9.730;2024-03-02T11:52:05;14.20;99.90
16736;DHT22;17990;49.548;9.730;2024-03-02T11:54:33;14.30;99.90
16736;DHT22;17990;49.548;9.730;2024-03-02T11:57:01;14.40;99.90
16736;DHT22;17990;49.548;9.730;2024-03-02T11:59:29;14.40;99.90
16736;DHT22;17990;49.548;9.730;2024-03-02T12:01:56;14.50;99.90
16736;DHT22;17990;49.548;9.730;2024-03-02T12:04:25;14.50;99.90
16736;DHT22;17990;49.548;9.730;2024-03-02T12:06:54;14.50;99.90
16736;DHT22;17990;49.548;9.730;2024-03-02T12:09:22;14.60;99.90
16736;DHT22;17990;49.548;9.730;2024-03-02T12:12:01;14.70;99.90
16736;DHT22;17990;49.548;9.730;2024-03-02T12:14:28;14.90;99.90
16736;DHT22;17990;49.548;9.730;2024-03-02T12:16:55;14.90;99.90
16736;DHT22;17990;49.548;9.730;2024-03-02T12:19:25;14.90;99.90
16736;DHT22;17990;49.548;9.730;2024-03-02T12:21:53;15.00;99.90
16736;DHT22;17990;49.548;9.730;2024-03-02T12:24:21;15.10;99.90
16736;DHT22;17990;49.548;9.730;2024-03-02T12:26:49;15.10;99.90
16736;DHT22;17990;49.548;9.730;2024-03-02T12:29:16;15.10;99.90
16736;DHT22;17990;49.548;9.730;2024-03-02T12:31:43;15.20;99.90
16736;DHT22;17990;49.548;9.730;2024-03-02T12:34:12;15.30;99.90
16736;DHT22;17990;49.548;9.730;2024-03-02T12:36:40;15.40;99.90
16736;DHT22;17990;49.548;9.730;2024-03-02T12:39:07;15.50;99.90
16736;DHT22;17990;49.548;9.730;2024-03-02T12:41:36;15.60;99.90
16736;DHT22;17990;49.548;9.730;2024-03-02T12:44:02;15.60;99.90
16736;DHT22;17990;49.548;9.730;2024-03-02T12:46:29;15.60;99.90
16736;DHT22;17990;49.548;9.730;2024-03-02T12:48:56;15.70;99.90
16736;DHT22;17990;49.548;9.730;2024-03-02T12:51:23;15.70;99.90
16736;DHT22;17990;49.548;9.730;2024-03-02T12:53:54;15.90;99.90
16736;DHT22;17990;49.548;9.730;2024-03-02T12:56:21;15.90;99.90
16736;DHT22;17990;49.548;9.730;2024-03-02T12:58:53;16.00;99.90
16736;DHT22;17990;49.548;9.730;2024-03-02T13:01:20;15.90;99.90
16736;DHT22;17990;49.548;9.730;2024-03-02T13:03:48;15.90;99.90
16736;DHT22;17990;49.548;9.730;2024-03-02T13:06:16;16.00;99.90
16736;DHT22;17990;49.548;9.730;2024-03-02T13:08:45;16.10;99.90
16736;DHT22;17990;49.548;9.730;2024-03-02T13:11:13;16.00;99.90
16736;DHT22;17990;49.548;9.730;2024-03-02T13:13:40;16.00;99.90
16736;DHT22;17990;49.548;9.730;2024-03-02T13:16:08;16.20;99.90
16736;DHT22;17990;49.548;9.730;2024-03-02T13:18:36;16.20;99.90
16736;DHT22;17990;49.548;9.730;2024-03-02T13:21:03;16.20;99.90
16736;DHT22;17990;49.548;9.730;2024-03-02T13:23:30;16.30;99.90
16736;DHT22;17990;49.548;9.730;2024-03-02T13:25:57;16.30;99.90
16736;DHT22;17990;49.548;9.730;2024-03-02T13:28:26;16.30;99.90
16736;DHT22;17990;49.548;9.730;2024-03-02T13:30:53;16.30;99.90
16736;DHT22;17990;49.548;9.730;2024-03-02T13:33:19;16.20;99.90
16736;DHT22;17990;49.548;9.730;2024-03-02T13:35:48;16.30;99.90
16736;DHT22;17990;49.548;9.730;2024-03-02T13:38:15;16.30;99.90
16736;DHT22;17990;49.548;9.730;2024-03-02T13:40:42;16.30;99.90
16736;DHT22;17990;49.548;9.730;2024-03-02T13:43:09;16.40;99.90
16736;DHT22;17990;49.548;9.730;2024-03-02T13:45:38;16.40;99.90
16736;DHT22;17990;49.548;9.730;2024-03-02T13:48:05;16.40;99.90
16736;DHT22;17990;49.548;9.730;2024-03-02T13:50:32;16.40;99.90
16736;DHT22;17990;49.548;9.730;2024-03-02T13:52:59;16.50;99.90
16736;DHT22;17990;49.548;9.730;2024-03-02T13:55:26;16.40;99.90
16736;DHT22;17990;49.548;9.730;2024-03-02T13:57:52;16.30;99.90
16736;DHT22;17990;49.548;9.730;2024-03-02T14:00:19;16.00;99.90
16736;DHT22;17990;49.548;9.730;2024-03-02T14:02:48;15.80;99.90
16736;DHT22;17990;49.548;9.730;2024-03-02T14:05:15;15.80;99.90
16736;DHT22;17990;49.548;9.730;2024-03-02T14:07:42;15.90;99.90
16736;DHT22;17990;49.548;9.730;2024-03-02T14:10:09;15.90;99.90
16736;DHT22;17990;49.548;9.730;2024-03-02T14:12:36;15.90;99.90
16736;DHT22;17990;49.548;9.730;2024-03-02T14:15:04;16.00;99.90
16736;DHT22;17990;49.548;9.730;2024-03-02T14:17:31;16.00;99.90
16736;DHT22;17990;49.548;9.730;2024-03-02T14:19:59;16.00;99.90
16736;DHT22;17990;49.548;9.730;2024-03-02T14:22:26;16.00;99.90
16736;DHT22;17990;49.548;9.730;2024-03-02T14:24:53;16.00;99.90
16736;DHT22;17990;49.548;9.730;2024-03-02T14:27:19;16.10;99.90
16736;DHT22;17990;49.548;9.730;2024-03-02T14:29:46;16.20;99.90
16736;DHT22;17990;49.548;9.730;2024-03-02T14:32:13;16.30;99.90
16736;DHT22;17990;49.548;9.730;2024-03-02T14:34:40;16.20;99.90
16736;DHT22;17990;49.548;9.730;2024-03-02T14:37:08;16.30;99.90
16736;DHT22;17990;49.548;9.730;2024-03-02T14:39:35;16.20;99.90
16736;DHT22;17990;49.548;9.730;2024-03-02T14:42:02;16.30;99.90
16736;DHT22;17990;49.548;9.730;2024-03-02T14:44:28;16.30;99.90
16736;DHT22;17990;49.548;9.730;2024-03-02T14:46:55;16.10;99.90
16736;DHT22;17990;49.548;9.730;2024-03-02T14:49:23;16.10;99.90
16736;DHT22;17990;49.548;9.730;2024-03-02T14:51:50;16.00;99.90
16736;DHT22;17990;49.548;9.730;2024-03-02T14:54:18;16.00;99.90
16736;DHT22;17990;49.548;9.730;2024-03-02T14:56:45;16.00;99.90
16736;DHT22;17990;49.548;9.730;2024-03-02T14:59:12;16.10;99.90
16736;DHT22;17990;49.548;9.730;2024-03-02T15:01:39;16.00;99.90
16736;DHT22;17990;49.548;9.730;2024-03-02T15:04:05;16.10;99.90
16736;DHT22;17990;49.548;9.730;2024-03-02T15:06:32;16.10;99.90
16736;DHT22;17990;49.548;9.730;2024-03-02T15:08:59;16.00;99.90
16736;DHT22;17990;49.548;9.730;2024-03-02T15:11:28;15.90;99.90
16736;DHT22;17990;49.548;9.730;2024-03-02T15:13:55;15.80;99.90
16736;DHT22;17990;49.548;9.730;2024-03-02T15:16:22;15.80;99.90
16736;DHT22;17990;49.548;9.730;2024-03-02T15:18:49;15.70;99.90
16736;DHT22;17990;49.548;9.730;2024-03-02T15:21:16;15.70;99.90
16736;DHT22;17990;49.548;9.730;2024-03-02T15:23:44;15.70;99.90
16736;DHT22;17990;49.548;9.730;2024-03-02T15:26:11;15.60;99.90
16736;DHT22;17990;49.548;9.730;2024-03-02T15:28:39;15.50;99.90
16736;DHT22;17990;49.548;9.730;2024-03-02T15:31:06;15.50;99.90
16736;DHT22;17990;49.548;9.730;2024-03-02T15:33:32;15.50;99.90
16736;DHT22;17990;49.548;9.730;2024-03-02T15:36:00;15.40;99.90
16736;DHT22;17990;49.548;9.730;2024-03-02T15:38:26;15.30;99.90
16736;DHT22;17990;49.548;9.730;2024-03-02T15:40:53;15.30;99.90
16736;DHT22;17990;49.548;9.730;2024-03-02T15:43:20;15.20;99.90